sensor_id;sensor_type;location;lat;lon;timestamp;pressure;altitude;pressure_sealevel;temperature;humidity
41690;BME280;27372;42.658;23.256;2023-04-10T00:01:00;93856.56;;;6.26;71.64
41690;BME280;27372;42.658;23.256;2023-04-10T00:03:26;93852.56;;;6.30;71.82
41690;BME280;27372;42.658;23.256;2023-04-10T00:05:52;93852.94;;;6.34;72.57
41690;BME280;27372;42.658;23.256;2023-04-10T00:08:22;93850.34;;;6.27;74.38
41690;BME280;27372;42.658;23.256;2023-04-10T00:10:48;93848.03;;;6.05;76.65
41690;BME280;27372;42.658;23.256;2023-04-10T00:13:14;93843.94;;;6.23;77.07
41690;BME280;27372;42.658;23.256;2023-04-10T00:15:40;93842.13;;;6.30;76.40
41690;BME280;27372;42.658;23.256;2023-04-10T00:18:06;93849.31;;;6.35;76.13
41690;BME280;27372;42.658;23.256;2023-04-10T00:20:31;93837.34;;;6.14;74.95
41690;BME280;27372;42.658;23.256;2023-04-10T00:22:56;93835.56;;;6.14;73.70
41690;BME280;27372;42.658;23.256;2023-04-10T00:25:22;93831.50;;;6.18;72.91
41690;BME280;27372;42.658;23.256;2023-04-10T00:27:48;93836.59;;;6.06;72.25
41690;BME280;27372;42.658;23.256;2023-04-10T00:30:13;93836.38;;;6.01;71.44
41690;BME280;27372;42.658;23.256;2023-04-10T00:32:38;93833.97;;;6.06;70.07
41690;BME280;27372;42.658;23.256;2023-04-10T00:35:05;93842.56;;;6.14;69.88
41690;BME280;27372;42.658;23.256;2023-04-10T00:37:31;93837.31;;;6.27;68.69
41690;BME280;27372;42.658;23.256;2023-04-10T00:39:56;93843.38;;;6.14;69.03
41690;BME280;27372;42.658;23.256;2023-04-10T00:42:21;93842.53;;;6.20;68.08
41690;BME280;27372;42.658;23.256;2023-04-10T00:44:47;93837.19;;;6.09;68.80
41690;BME280;27372;42.658;23.256;2023-04-10T00:47:12;93834.56;;;6.15;68.02
41690;BME280;27372;42.658;23.256;2023-04-10T00:49:39;93842.56;;;6.14;68.26
41690;BME280;27372;42.658;23.256;2023-04-10T00:52:05;93833.78;;;6.01;67.93
41690;BME280;27372;42.658;23.256;2023-04-10T00:54:31;93830.00;;;6.04;67.89
41690;BME280;27372;42.658;23.256;2023-04-10T00:56:58;93828.31;;;6.16;67.40
41690;BME280;27372;42.658;23.256;2023-04-10T00:59:24;93828.53;;;6.08;66.68
41690;BME280;27372;42.658;23.256;2023-04-10T01:01:49;93827.75;;;6.08;66.47
41690;BME280;27372;42.658;23.256;2023-04-10T01:04:15;93825.94;;;6.08;66.49
41690;BME280;27372;42.658;23.256;2023-04-10T01:06:55;93833.13;;;6.19;66.87
41690;BME280;27372;42.658;23.256;2023-04-10T01:11:59;93823.56;;;6.06;66.85
41690;BME280;27372;42.658;23.256;2023-04-10T01:14:45;93834.91;;;6.26;66.39
41690;BME280;27372;42.658;23.256;2023-04-10T01:17:45;93835.09;;;6.24;66.37
41690;BME280;27372;42.658;23.256;2023-04-10T01:20:22;93828.13;;;6.18;66.33
41690;BME280;27372;42.658;23.256;2023-04-10T01:30:57;93838.19;;;6.46;66.69
41690;BME280;27372;42.658;23.256;2023-04-10T01:33:29;93820.03;;;6.33;67.93
41690;BME280;27372;42.658;23.256;2023-04-10T01:36:01;93823.63;;;6.32;69.39
41690;BME280;27372;42.658;23.256;2023-04-10T01:38:29;93816.47;;;6.20;70.08
41690;BME280;27372;42.658;23.256;2023-04-10T01:40:56;93822.66;;;6.26;70.06
41690;BME280;27372;42.658;23.256;2023-04-10T01:43:24;93825.28;;;6.19;70.48
41690;BME280;27372;42.658;23.256;2023-04-10T01:45:50;93819.88;;;6.21;70.29
41690;BME280;27372;42.658;23.256;2023-04-10T01:48:17;93823.28;;;6.21;70.77
41690;BME280;27372;42.658;23.256;2023-04-10T01:50:44;93826.53;;;6.10;70.39
41690;BME280;27372;42.658;23.256;2023-04-10T01:53:11;93838.94;;;6.21;70.03
41690;BME280;27372;42.658;23.256;2023-04-10T01:55:37;93829.09;;;6.24;69.72
41690;BME280;27372;42.658;23.256;2023-04-10T01:58:03;93832.47;;;6.31;70.10
41690;BME280;27372;42.658;23.256;2023-04-10T02:00:39;93831.13;;;6.15;70.98
41690;BME280;27372;42.658;23.256;2023-04-10T02:03:05;93830.34;;;6.14;70.55
41690;BME280;27372;42.658;23.256;2023-04-10T02:05:43;93814.47;;;6.16;71.10
41690;BME280;27372;42.658;23.256;2023-04-10T02:08:14;93826.03;;;6.33;70.65
41690;BME280;27372;42.658;23.256;2023-04-10T02:11:10;93827.09;;;6.58;69.83
41690;BME280;27372;42.658;23.256;2023-04-10T02:13:39;93824.31;;;6.59;69.55
41690;BME280;27372;42.658;23.256;2023-04-10T02:16:06;93826.66;;;6.67;69.98
41690;BME280;27372;42.658;23.256;2023-04-10T02:18:35;93815.13;;;6.50;69.62
41690;BME280;27372;42.658;23.256;2023-04-10T02:21:02;93825.47;;;6.63;69.19
41690;BME280;27372;42.658;23.256;2023-04-10T02:23:28;93817.91;;;6.55;69.88
41690;BME280;27372;42.658;23.256;2023-04-10T02:25:54;93816.28;;;6.54;70.17
41690;BME280;27372;42.658;23.256;2023-04-10T02:28:21;93811.06;;;6.54;70.30
41690;BME280;27372;42.658;23.256;2023-04-10T02:30:46;93812.03;;;6.60;71.02
41690;BME280;27372;42.658;23.256;2023-04-10T02:33:13;93794.53;;;6.35;71.35
41690;BME280;27372;42.658;23.256;2023-04-10T02:35:39;93792.06;;;6.47;70.64
41690;BME280;27372;42.658;23.256;2023-04-10T02:38:04;93786.03;;;6.46;71.78
41690;BME280;27372;42.658;23.256;2023-04-10T02:40:30;93795.56;;;6.66;70.84
41690;BME280;27372;42.658;23.256;2023-04-10T02:42:55;93793.69;;;6.73;71.28
41690;BME280;27372;42.658;23.256;2023-04-10T02:45:21;93782.09;;;6.62;71.54
41690;BME280;27372;42.658;23.256;2023-04-10T02:47:46;93781.81;;;6.77;71.30
41690;BME280;27372;42.658;23.256;2023-04-10T02:50:11;93782.44;;;6.73;71.52
41690;BME280;27372;42.658;23.256;2023-04-10T02:52:37;93784.97;;;6.86;70.57
41690;BME280;27372;42.658;23.256;2023-04-10T02:55:03;93786.56;;;6.87;71.08
41690;BME280;27372;42.658;23.256;2023-04-10T02:57:28;93781.75;;;6.84;70.85
41690;BME280;27372;42.658;23.256;2023-04-10T02:59:53;93784.38;;;6.84;70.91
41690;BME280;27372;42.658;23.256;2023-04-10T03:02:19;93772.91;;;6.85;70.87
41690;BME280;27372;42.658;23.256;2023-04-10T03:04:45;93785.38;;;6.83;71.54
41690;BME280;27372;42.658;23.256;2023-04-10T03:07:11;93768.59;;;6.72;71.39
41690;BME280;27372;42.658;23.256;2023-04-10T03:09:36;93781.38;;;6.80;71.82
41690;BME280;27372;42.658;23.256;2023-04-10T03:12:01;93775.94;;;6.82;71.81
41690;BME280;27372;42.658;23.256;2023-04-10T03:14:27;93782.34;;;6.86;71.30
41690;BME280;27372;42.658;23.256;2023-04-10T03:16:52;93787.91;;;6.96;71.71
41690;BME280;27372;42.658;23.256;2023-04-10T03:19:18;93785.00;;;7.05;71.06
41690;BME280;27372;42.658;23.256;2023-04-10T03:21:44;93780.97;;;7.09;70.83
41690;BME280;27372;42.658;23.256;2023-04-10T03:24:10;93791.50;;;7.21;70.96
41690;BME280;27372;42.658;23.256;2023-04-10T03:26:35;93781.97;;;7.33;70.30
41690;BME280;27372;42.658;23.256;2023-04-10T03:29:01;93776.44;;;7.41;70.47
41690;BME280;27372;42.658;23.256;2023-04-10T03:31:26;93794.91;;;7.46;70.98
41690;BME280;27372;42.658;23.256;2023-04-10T03:33:52;93802.66;;;7.53;71.75
41690;BME280;27372;42.658;23.256;2023-04-10T03:36:17;93788.03;;;7.52;72.35
41690;BME280;27372;42.658;23.256;2023-04-10T03:38:42;93779.31;;;7.58;72.74
41690;BME280;27372;42.658;23.256;2023-04-10T03:41:08;93773.28;;;7.58;73.68
41690;BME280;27372;42.658;23.256;2023-04-10T03:43:33;93788.44;;;7.49;74.59
41690;BME280;27372;42.658;23.256;2023-04-10T03:45:59;93803.16;;;7.43;75.98
41690;BME280;27372;42.658;23.256;2023-04-10T03:48:25;93797.66;;;7.08;78.60
41690;BME280;27372;42.658;23.256;2023-04-10T03:50:53;93798.34;;;7.22;79.44
41690;BME280;27372;42.658;23.256;2023-04-10T03:53:18;93794.22;;;7.33;78.75
41690;BME280;27372;42.658;23.256;2023-04-10T03:55:44;93797.69;;;7.26;79.78
41690;BME280;27372;42.658;23.256;2023-04-10T03:58:09;93797.88;;;7.50;79.74
41690;BME280;27372;42.658;23.256;2023-04-10T04:00:36;93817.72;;;7.33;80.51
41690;BME280;27372;42.658;23.256;2023-04-10T04:03:01;93807.78;;;6.97;81.80
41690;BME280;27372;42.658;23.256;2023-04-10T04:05:29;93806.75;;;6.73;84.11
41690;BME280;27372;42.658;23.256;2023-04-10T04:07:55;93815.59;;;6.97;83.17
41690;BME280;27372;42.658;23.256;2023-04-10T04:10:20;93814.88;;;6.90;83.15
41690;BME280;27372;42.658;23.256;2023-04-10T04:12:46;93811.72;;;6.81;84.80
41690;BME280;27372;42.658;23.256;2023-04-10T04:15:11;93818.19;;;7.04;83.58
41690;BME280;27372;42.658;23.256;2023-04-10T04:17:37;93825.63;;;7.01;83.57
41690;BME280;27372;42.658;23.256;2023-04-10T04:20:04;93820.78;;;7.04;83.66
41690;BME280;27372;42.658;23.256;2023-04-10T04:22:30;93818.75;;;7.32;82.48
41690;BME280;27372;42.658;23.256;2023-04-10T04:24:55;93819.00;;;7.23;82.66
41690;BME280;27372;42.658;23.256;2023-04-10T04:27:20;93822.75;;;7.09;83.43
41690;BME280;27372;42.658;23.256;2023-04-10T04:29:47;93824.63;;;7.02;83.79
41690;BME280;27372;42.658;23.256;2023-04-10T04:32:13;93820.25;;;6.95;84.46
41690;BME280;27372;42.658;23.256;2023-04-10T04:34:38;93825.97;;;7.11;83.35
41690;BME280;27372;42.658;23.256;2023-04-10T04:37:04;93827.81;;;7.29;83.26
41690;BME280;27372;42.658;23.256;2023-04-10T04:39:29;93824.13;;;7.37;82.36
41690;BME280;27372;42.658;23.256;2023-04-10T04:41:55;93826.38;;;7.33;82.71
41690;BME280;27372;42.658;23.256;2023-04-10T04:44:20;93822.91;;;7.39;82.70
41690;BME280;27372;42.658;23.256;2023-04-10T04:46:46;93832.66;;;7.51;81.94
41690;BME280;27372;42.658;23.256;2023-04-10T04:49:11;93826.94;;;7.60;81.89
41690;BME280;27372;42.658;23.256;2023-04-10T04:51:37;93838.13;;;7.68;81.14
41690;BME280;27372;42.658;23.256;2023-04-10T04:54:03;93821.44;;;7.69;80.45
41690;BME280;27372;42.658;23.256;2023-04-10T04:56:28;93838.72;;;7.70;80.90
41690;BME280;27372;42.658;23.256;2023-04-10T04:58:53;93835.50;;;7.68;80.90
41690;BME280;27372;42.658;23.256;2023-04-10T05:01:19;93836.81;;;7.58;80.44
41690;BME280;27372;42.658;23.256;2023-04-10T05:03:44;93837.22;;;7.55;79.84
41690;BME280;27372;42.658;23.256;2023-04-10T05:06:10;93838.34;;;7.66;79.10
41690;BME280;27372;42.658;23.256;2023-04-10T05:08:35;93843.28;;;7.56;78.38
41690;BME280;27372;42.658;23.256;2023-04-10T05:11:00;93840.38;;;7.83;76.81
41690;BME280;27372;42.658;23.256;2023-04-10T05:13:26;93845.25;;;7.79;75.46
41690;BME280;27372;42.658;23.256;2023-04-10T05:15:51;93841.03;;;7.78;74.01
41690;BME280;27372;42.658;23.256;2023-04-10T05:18:17;93847.66;;;7.99;73.19
41690;BME280;27372;42.658;23.256;2023-04-10T05:20:45;93838.50;;;8.08;73.01
41690;BME280;27372;42.658;23.256;2023-04-10T05:23:11;93839.28;;;8.28;72.55
41690;BME280;27372;42.658;23.256;2023-04-10T05:25:37;93834.59;;;8.18;73.22
41690;BME280;27372;42.658;23.256;2023-04-10T05:28:02;93850.19;;;8.43;72.29
41690;BME280;27372;42.658;23.256;2023-04-10T05:30:28;93841.59;;;8.36;71.84
41690;BME280;27372;42.658;23.256;2023-04-10T05:32:53;93846.53;;;8.44;70.79
41690;BME280;27372;42.658;23.256;2023-04-10T05:35:18;93844.06;;;8.49;71.58
41690;BME280;27372;42.658;23.256;2023-04-10T05:37:44;93854.06;;;8.71;70.41
41690;BME280;27372;42.658;23.256;2023-04-10T05:40:09;93844.28;;;8.78;69.07
41690;BME280;27372;42.658;23.256;2023-04-10T05:42:35;93836.78;;;8.82;69.61
41690;BME280;27372;42.658;23.256;2023-04-10T05:45:00;93838.88;;;8.92;69.12
41690;BME280;27372;42.658;23.256;2023-04-10T05:47:26;93838.59;;;9.36;90.35
41690;BME280;27372;42.658;23.256;2023-04-10T05:49:51;93836.44;;;9.68;90.86
41690;BME280;27372;42.658;23.256;2023-04-10T05:52:16;93837.47;;;9.79;79.15
41690;BME280;27372;42.658;23.256;2023-04-10T05:54:42;93842.28;;;9.58;71.80
41690;BME280;27372;42.658;23.256;2023-04-10T05:57:07;93848.53;;;9.69;71.98
41690;BME280;27372;42.658;23.256;2023-04-10T05:59:32;93844.44;;;9.73;73.30
41690;BME280;27372;42.658;23.256;2023-04-10T06:01:58;93856.41;;;9.69;73.75
41690;BME280;27372;42.658;23.256;2023-04-10T06:04:23;93854.81;;;9.68;73.79
41690;BME280;27372;42.658;23.256;2023-04-10T06:06:49;93855.84;;;9.55;73.52
41690;BME280;27372;42.658;23.256;2023-04-10T06:09:14;93855.34;;;9.46;74.63
41690;BME280;27372;42.658;23.256;2023-04-10T06:11:40;93850.34;;;9.33;74.44
41690;BME280;27372;42.658;23.256;2023-04-10T06:14:05;93855.22;;;9.17;74.40
41690;BME280;27372;42.658;23.256;2023-04-10T06:16:31;93845.97;;;9.15;77.49
41690;BME280;27372;42.658;23.256;2023-04-10T06:18:56;93854.19;;;9.19;75.31
41690;BME280;27372;42.658;23.256;2023-04-10T06:21:22;93862.78;;;9.26;75.06
41690;BME280;27372;42.658;23.256;2023-04-10T06:23:47;93857.09;;;9.41;74.62
41690;BME280;27372;42.658;23.256;2023-04-10T06:26:13;93842.81;;;9.37;73.73
41690;BME280;27372;42.658;23.256;2023-04-10T06:28:38;93850.25;;;9.40;73.70
41690;BME280;27372;42.658;23.256;2023-04-10T06:31:07;93847.50;;;9.35;69.39
41690;BME280;27372;42.658;23.256;2023-04-10T06:33:32;93850.47;;;9.38;68.37
41690;BME280;27372;42.658;23.256;2023-04-10T06:36:01;93849.38;;;9.04;67.98
41690;BME280;27372;42.658;23.256;2023-04-10T06:38:26;93851.72;;;9.24;67.54
41690;BME280;27372;42.658;23.256;2023-04-10T06:40:52;93849.41;;;9.15;67.47
41690;BME280;27372;42.658;23.256;2023-04-10T06:43:17;93847.16;;;9.31;67.28
41690;BME280;27372;42.658;23.256;2023-04-10T06:45:43;93843.75;;;9.30;67.34
41690;BME280;27372;42.658;23.256;2023-04-10T06:48:09;93845.09;;;9.33;66.66
41690;BME280;27372;42.658;23.256;2023-04-10T06:50:34;93855.97;;;9.06;66.96
41690;BME280;27372;42.658;23.256;2023-04-10T06:53:00;93861.25;;;9.18;66.90
41690;BME280;27372;42.658;23.256;2023-04-10T06:55:25;93850.53;;;9.08;66.77
41690;BME280;27372;42.658;23.256;2023-04-10T06:57:51;93855.00;;;9.31;66.94
41690;BME280;27372;42.658;23.256;2023-04-10T07:00:18;93859.22;;;9.32;65.61
41690;BME280;27372;42.658;23.256;2023-04-10T07:02:43;93858.13;;;9.40;65.57
41690;BME280;27372;42.658;23.256;2023-04-10T07:05:10;93860.59;;;9.46;65.02
41690;BME280;27372;42.658;23.256;2023-04-10T07:07:35;93864.50;;;9.56;64.89
41690;BME280;27372;42.658;23.256;2023-04-10T07:10:01;93859.03;;;9.45;64.64
41690;BME280;27372;42.658;23.256;2023-04-10T07:12:26;93861.22;;;9.60;64.87
41690;BME280;27372;42.658;23.256;2023-04-10T07:14:52;93855.16;;;9.84;63.69
41690;BME280;27372;42.658;23.256;2023-04-10T07:17:17;93852.88;;;9.75;64.45
41690;BME280;27372;42.658;23.256;2023-04-10T07:19:43;93859.34;;;9.97;63.39
41690;BME280;27372;42.658;23.256;2023-04-10T07:22:08;93852.59;;;10.13;62.34
41690;BME280;27372;42.658;23.256;2023-04-10T07:24:33;93851.47;;;10.08;62.03
41690;BME280;27372;42.658;23.256;2023-04-10T07:26:59;93858.91;;;9.88;63.22
41690;BME280;27372;42.658;23.256;2023-04-10T07:29:25;93854.81;;;9.80;63.86
41690;BME280;27372;42.658;23.256;2023-04-10T07:31:51;93861.44;;;9.71;62.53
41690;BME280;27372;42.658;23.256;2023-04-10T07:34:16;93860.03;;;9.68;63.14
41690;BME280;27372;42.658;23.256;2023-04-10T07:36:42;93862.09;;;9.54;63.46
41690;BME280;27372;42.658;23.256;2023-04-10T07:39:08;93871.56;;;9.43;64.05
41690;BME280;27372;42.658;23.256;2023-04-10T07:41:33;93871.09;;;9.35;63.88
41690;BME280;27372;42.658;23.256;2023-04-10T07:43:59;93856.38;;;9.22;64.93
41690;BME280;27372;42.658;23.256;2023-04-10T07:46:25;93869.59;;;9.27;64.75
41690;BME280;27372;42.658;23.256;2023-04-10T07:48:51;93862.38;;;9.10;65.67
41690;BME280;27372;42.658;23.256;2023-04-10T07:51:17;93864.03;;;9.47;64.72
41690;BME280;27372;42.658;23.256;2023-04-10T07:53:45;93869.06;;;9.96;63.18
41690;BME280;27372;42.658;23.256;2023-04-10T07:56:15;93867.22;;;10.08;62.52
41690;BME280;27372;42.658;23.256;2023-04-10T07:58:41;93869.97;;;9.90;62.84
41690;BME280;27372;42.658;23.256;2023-04-10T08:01:06;93859.44;;;10.14;63.06
41690;BME280;27372;42.658;23.256;2023-04-10T08:06:06;93863.31;;;10.23;61.81
41690;BME280;27372;42.658;23.256;2023-04-10T08:08:34;93856.91;;;10.43;60.94
41690;BME280;27372;42.658;23.256;2023-04-10T08:11:01;93866.28;;;10.26;61.64
41690;BME280;27372;42.658;23.256;2023-04-10T08:13:26;93851.16;;;9.81;62.51
41690;BME280;27372;42.658;23.256;2023-04-10T08:15:52;93861.66;;;9.45;62.74
41690;BME280;27372;42.658;23.256;2023-04-10T08:18:17;93855.94;;;9.72;63.42
41690;BME280;27372;42.658;23.256;2023-04-10T08:20:43;93859.84;;;9.70;62.15
41690;BME280;27372;42.658;23.256;2023-04-10T08:23:08;93858.13;;;9.52;63.24
41690;BME280;27372;42.658;23.256;2023-04-10T08:25:33;93863.16;;;9.65;63.16
41690;BME280;27372;42.658;23.256;2023-04-10T08:27:59;93860.03;;;9.68;63.10
41690;BME280;27372;42.658;23.256;2023-04-10T08:30:24;93860.38;;;9.60;63.19
41690;BME280;27372;42.658;23.256;2023-04-10T08:32:50;93851.75;;;9.59;62.73
41690;BME280;27372;42.658;23.256;2023-04-10T08:35:15;93858.81;;;9.83;62.31
41690;BME280;27372;42.658;23.256;2023-04-10T08:37:41;93857.41;;;10.16;61.85
41690;BME280;27372;42.658;23.256;2023-04-10T08:40:07;93856.00;;;10.13;61.79
41690;BME280;27372;42.658;23.256;2023-04-10T08:42:32;93852.13;;;10.28;60.73
41690;BME280;27372;42.658;23.256;2023-04-10T08:44:57;93848.75;;;10.03;60.92
41690;BME280;27372;42.658;23.256;2023-04-10T08:47:26;93851.59;;;9.90;60.38
41690;BME280;27372;42.658;23.256;2023-04-10T08:49:56;93851.47;;;10.08;61.28
41690;BME280;27372;42.658;23.256;2023-04-10T08:52:25;93851.59;;;10.14;61.31
41690;BME280;27372;42.658;23.256;2023-04-10T08:54:55;93843.09;;;10.35;61.96
41690;BME280;27372;42.658;23.256;2023-04-10T08:57:22;93842.56;;;10.62;60.69
41690;BME280;27372;42.658;23.256;2023-04-10T08:59:49;93847.19;;;10.31;60.55
41690;BME280;27372;42.658;23.256;2023-04-10T09:02:16;93840.47;;;10.35;61.39
41690;BME280;27372;42.658;23.256;2023-04-10T09:04:52;93850.38;;;10.57;60.07
41690;BME280;27372;42.658;23.256;2023-04-10T09:07:25;93847.94;;;10.55;58.94
41690;BME280;27372;42.658;23.256;2023-04-10T09:09:50;93843.88;;;10.36;59.53
41690;BME280;27372;42.658;23.256;2023-04-10T09:12:16;93836.38;;;10.28;60.73
41690;BME280;27372;42.658;23.256;2023-04-10T09:14:42;93835.38;;;10.17;61.69
41690;BME280;27372;42.658;23.256;2023-04-10T09:17:23;93823.50;;;10.14;60.87
41690;BME280;27372;42.658;23.256;2023-04-10T09:19:53;93834.06;;;9.90;61.98
41690;BME280;27372;42.658;23.256;2023-04-10T09:22:30;93834.81;;;10.03;62.53
41690;BME280;27372;42.658;23.256;2023-04-10T09:24:58;93839.38;;;10.07;61.27
41690;BME280;27372;42.658;23.256;2023-04-10T09:27:33;93826.25;;;10.07;61.41
41690;BME280;27372;42.658;23.256;2023-04-10T09:30:00;93833.25;;;9.90;61.29
41690;BME280;27372;42.658;23.256;2023-04-10T09:32:39;93821.41;;;10.40;61.29
41690;BME280;27372;42.658;23.256;2023-04-10T09:35:05;93820.94;;;10.31;60.93
41690;BME280;27372;42.658;23.256;2023-04-10T09:37:35;93823.38;;;10.21;59.67
41690;BME280;27372;42.658;23.256;2023-04-10T09:40:01;93822.88;;;10.36;58.83
41690;BME280;27372;42.658;23.256;2023-04-10T09:42:35;93826.63;;;10.52;60.03
41690;BME280;27372;42.658;23.256;2023-04-10T09:45:04;93827.25;;;10.59;59.25
41690;BME280;27372;42.658;23.256;2023-04-10T09:47:30;93818.66;;;10.47;59.83
41690;BME280;27372;42.658;23.256;2023-04-10T09:49:58;93823.28;;;10.56;59.25
41690;BME280;27372;42.658;23.256;2023-04-10T09:52:32;93833.75;;;10.68;58.19
41690;BME280;27372;42.658;23.256;2023-04-10T09:54:59;93834.34;;;10.87;58.88
41690;BME280;27372;42.658;23.256;2023-04-10T09:57:27;93831.91;;;10.98;58.14
41690;BME280;27372;42.658;23.256;2023-04-10T09:59:57;93824.03;;;11.49;56.84
41690;BME280;27372;42.658;23.256;2023-04-10T10:02:25;93831.53;;;11.23;56.57
41690;BME280;27372;42.658;23.256;2023-04-10T10:04:52;93834.97;;;10.78;57.25
41690;BME280;27372;42.658;23.256;2023-04-10T10:07:20;93818.16;;;10.62;58.24
41690;BME280;27372;42.658;23.256;2023-04-10T10:09:48;93818.47;;;10.65;59.80
41690;BME280;27372;42.658;23.256;2023-04-10T10:12:23;93815.59;;;12.03;56.28
41690;BME280;27372;42.658;23.256;2023-04-10T10:17:24;93817.59;;;13.50;50.86
41690;BME280;27372;42.658;23.256;2023-04-10T10:20:07;93803.53;;;13.39;51.21
41690;BME280;27372;42.658;23.256;2023-04-10T10:22:34;93800.69;;;12.58;52.31
41690;BME280;27372;42.658;23.256;2023-04-10T10:25:01;93799.22;;;12.68;51.53
41690;BME280;27372;42.658;23.256;2023-04-10T10:27:30;93806.16;;;12.52;51.40
41690;BME280;27372;42.658;23.256;2023-04-10T10:29:58;93802.22;;;12.54;51.04
41690;BME280;27372;42.658;23.256;2023-04-10T10:32:24;93807.16;;;11.84;52.66
41690;BME280;27372;42.658;23.256;2023-04-10T10:34:52;93800.41;;;11.71;52.63
41690;BME280;27372;42.658;23.256;2023-04-10T10:37:21;93791.94;;;11.86;52.98
41690;BME280;27372;42.658;23.256;2023-04-10T10:40:09;93788.31;;;11.92;53.81
41690;BME280;27372;42.658;23.256;2023-04-10T10:42:41;93799.22;;;11.79;52.47
41690;BME280;27372;42.658;23.256;2023-04-10T10:45:20;93784.78;;;11.64;53.02
41690;BME280;27372;42.658;23.256;2023-04-10T10:47:52;93778.97;;;12.46;50.07
41690;BME280;27372;42.658;23.256;2023-04-10T10:50:18;93773.16;;;12.71;50.35
41690;BME280;27372;42.658;23.256;2023-04-10T10:52:47;93784.94;;;14.09;47.05
41690;BME280;27372;42.658;23.256;2023-04-10T10:58:05;93777.16;;;14.51;45.38
41690;BME280;27372;42.658;23.256;2023-04-10T11:11:02;93742.78;;;13.66;46.95
41690;BME280;27372;42.658;23.256;2023-04-10T11:13:36;93751.41;;;13.57;46.59
41690;BME280;27372;42.658;23.256;2023-04-10T11:16:03;93756.63;;;14.00;47.04
41690;BME280;27372;42.658;23.256;2023-04-10T11:21:14;93739.47;;;13.97;45.22
41690;BME280;27372;42.658;23.256;2023-04-10T11:31:40;93728.72;;;14.14;44.60
41690;BME280;27372;42.658;23.256;2023-04-10T11:34:08;93737.50;;;14.45;43.01
41690;BME280;27372;42.658;23.256;2023-04-10T11:36:37;93732.00;;;14.57;43.26
41690;BME280;27372;42.658;23.256;2023-04-10T11:39:05;93732.22;;;14.45;43.63
41690;BME280;27372;42.658;23.256;2023-04-10T11:41:48;93726.75;;;13.03;46.89
41690;BME280;27372;42.658;23.256;2023-04-10T11:44:15;93739.44;;;12.73;48.16
41690;BME280;27372;42.658;23.256;2023-04-10T11:46:44;93728.72;;;12.25;49.99
41690;BME280;27372;42.658;23.256;2023-04-10T11:49:15;93740.25;;;11.58;50.70
41690;BME280;27372;42.658;23.256;2023-04-10T11:51:44;93740.69;;;11.32;51.51
41690;BME280;27372;42.658;23.256;2023-04-10T11:54:15;93731.19;;;11.71;51.96
41690;BME280;27372;42.658;23.256;2023-04-10T11:56:43;93733.78;;;11.88;51.92
41690;BME280;27372;42.658;23.256;2023-04-10T11:59:09;93728.09;;;12.73;49.73
41690;BME280;27372;42.658;23.256;2023-04-10T12:01:38;93715.56;;;13.66;47.87
41690;BME280;27372;42.658;23.256;2023-04-10T12:04:12;93715.16;;;13.95;46.70
41690;BME280;27372;42.658;23.256;2023-04-10T12:06:38;93717.59;;;13.11;48.41
41690;BME280;27372;42.658;23.256;2023-04-10T12:09:12;93722.97;;;12.88;48.82
41690;BME280;27372;42.658;23.256;2023-04-10T12:11:38;93726.09;;;12.85;48.48
41690;BME280;27372;42.658;23.256;2023-04-10T12:14:03;93720.75;;;12.48;48.02
41690;BME280;27372;42.658;23.256;2023-04-10T12:16:31;93719.50;;;12.50;48.93
41690;BME280;27372;42.658;23.256;2023-04-10T12:18:57;93724.69;;;12.45;48.43
41690;BME280;27372;42.658;23.256;2023-04-10T12:21:23;93723.63;;;12.19;48.16
41690;BME280;27372;42.658;23.256;2023-04-10T12:23:48;93724.44;;;12.19;48.59
41690;BME280;27372;42.658;23.256;2023-04-10T12:26:15;93729.41;;;12.16;50.69
41690;BME280;27372;42.658;23.256;2023-04-10T12:28:49;93714.69;;;11.75;52.69
41690;BME280;27372;42.658;23.256;2023-04-10T12:31:15;93727.50;;;10.93;56.50
41690;BME280;27372;42.658;23.256;2023-04-10T12:33:47;93740.91;;;10.17;61.42
41690;BME280;27372;42.658;23.256;2023-04-10T12:36:23;93744.69;;;9.56;69.30
41690;BME280;27372;42.658;23.256;2023-04-10T12:38:48;93760.53;;;9.50;73.95
41690;BME280;27372;42.658;23.256;2023-04-10T12:41:20;93763.84;;;9.69;74.56
41690;BME280;27372;42.658;23.256;2023-04-10T12:43:46;93761.19;;;9.81;74.53
41690;BME280;27372;42.658;23.256;2023-04-10T12:46:25;93761.13;;;9.52;75.61
41690;BME280;27372;42.658;23.256;2023-04-10T12:48:51;93747.88;;;9.11;79.29
41690;BME280;27372;42.658;23.256;2023-04-10T12:51:16;93749.03;;;9.51;78.05
41690;BME280;27372;42.658;23.256;2023-04-10T12:53:45;93734.28;;;9.73;75.91
41690;BME280;27372;42.658;23.256;2023-04-10T12:56:11;93737.88;;;9.31;72.79
41690;BME280;27372;42.658;23.256;2023-04-10T12:58:38;93731.63;;;9.21;74.04
41690;BME280;27372;42.658;23.256;2023-04-10T13:01:05;93731.25;;;9.29;73.86
41690;BME280;27372;42.658;23.256;2023-04-10T13:03:35;93741.19;;;9.39;75.31
41690;BME280;27372;42.658;23.256;2023-04-10T13:06:02;93735.13;;;9.38;74.02
41690;BME280;27372;42.658;23.256;2023-04-10T13:08:27;93744.03;;;9.49;73.54
41690;BME280;27372;42.658;23.256;2023-04-10T13:10:56;93739.81;;;9.89;71.69
41690;BME280;27372;42.658;23.256;2023-04-10T13:13:26;93733.97;;;10.39;69.18
41690;BME280;27372;42.658;23.256;2023-04-10T13:15:52;93734.88;;;10.62;66.32
41690;BME280;27372;42.658;23.256;2023-04-10T13:18:17;93727.25;;;10.95;65.02
41690;BME280;27372;42.658;23.256;2023-04-10T13:20:43;93734.00;;;11.25;64.96
41690;BME280;27372;42.658;23.256;2023-04-10T13:23:08;93720.19;;;11.96;62.17
41690;BME280;27372;42.658;23.256;2023-04-10T13:25:37;93711.31;;;12.79;58.05
41690;BME280;27372;42.658;23.256;2023-04-10T13:28:04;93719.22;;;13.55;54.73
41690;BME280;27372;42.658;23.256;2023-04-10T13:30:34;93720.59;;;14.41;51.93
41690;BME280;27372;42.658;23.256;2023-04-10T13:33:00;93714.34;;;14.94;49.38
41690;BME280;27372;42.658;23.256;2023-04-10T13:35:25;93714.34;;;15.15;49.10
41690;BME280;27372;42.658;23.256;2023-04-10T13:37:51;93702.28;;;15.90;47.72